createdAt,value
2018-12-21T00:00:45.745Z,1.7
2018-12-21T00:01:45.643Z,1.7
2018-12-21T00:02:45.517Z,1.7
2018-12-21T00:03:45.411Z,1.7
2018-12-21T00:04:45.299Z,1.7
2018-12-21T00:05:45.211Z,1.7
2018-12-21T00:06:45.519Z,1.7
2018-12-21T00:07:45.403Z,1.7
2018-12-21T00:08:45.299Z,1.7
2018-12-21T00:09:45.196Z,1.8
2018-12-21T00:10:45.097Z,1.8
2018-12-21T00:11:45.005Z,1.8
2018-12-21T00:12:44.922Z,1.8
2018-12-21T00:13:44.825Z,1.8
2018-12-21T00:14:44.715Z,1.8
2018-12-21T00:15:44.678Z,1.8
2018-12-21T00:16:44.973Z,1.8
2018-12-21T00:17:44.877Z,1.8
2018-12-21T00:18:44.757Z,1.8
2018-12-21T00:19:44.763Z,1.9
2018-12-21T00:20:44.769Z,1.8
2018-12-21T00:21:44.683Z,1.8
2018-12-21T00:22:44.571Z,1.8
2018-12-21T00:23:44.469Z,1.9
2018-12-21T00:24:44.364Z,1.9
2018-12-21T00:25:44.253Z,1.9
2018-12-21T00:26:44.576Z,1.9
2018-12-21T00:27:44.706Z,1.8
2018-12-21T00:28:44.575Z,1.8
2018-12-21T00:29:44.453Z,1.9
2018-12-21T00:30:44.352Z,1.9
2018-12-21T00:31:44.240Z,1.9
2018-12-21T00:32:44.164Z,1.8
2018-12-21T00:33:44.040Z,1.8
2018-12-21T00:34:43.936Z,1.8
2018-12-21T00:35:43.843Z,1.8
2018-12-21T00:36:44.175Z,1.8
2018-12-21T00:37:44.097Z,1.8
2018-12-21T00:38:43.994Z,1.8
2018-12-21T00:39:43.886Z,1.8
2018-12-21T00:40:43.783Z,1.8
2018-12-21T00:41:43.659Z,1.8
2018-12-21T00:42:43.554Z,1.7
2018-12-21T00:43:43.435Z,1.7
2018-12-21T00:44:43.324Z,1.7
2018-12-21T00:45:43.226Z,1.7
2018-12-21T00:46:43.763Z,1.7
2018-12-21T00:47:43.641Z,1.6
2018-12-21T00:48:43.810Z,1.6
2018-12-21T00:52:42.880Z,1.9
2018-12-21T00:56:42.432Z,2.2
2018-12-21T00:57:42.323Z,2.2
2018-12-21T00:58:42.215Z,2.2
2018-12-21T00:59:42.115Z,2.2
2018-12-21T01:00:42.013Z,2.2
2018-12-21T01:01:41.904Z,2.2
2018-12-21T01:02:41.817Z,2.2
2018-12-21T01:03:41.978Z,2.2
2018-12-21T01:04:41.866Z,2.2
2018-12-21T01:05:41.759Z,2.2
2018-12-21T01:06:42.206Z,2.2
2018-12-21T01:07:42.116Z,2.2
2018-12-21T01:08:42.079Z,2.2
2018-12-21T01:09:42.021Z,2.2
2018-12-21T01:10:41.924Z,2.2
2018-12-21T01:11:41.843Z,2.1
2018-12-21T01:12:41.742Z,2.1
2018-12-21T01:13:41.744Z,2.1
2018-12-21T01:14:41.650Z,2.1
2018-12-21T01:15:41.557Z,2.1
2018-12-21T01:16:42.083Z,2.1
2018-12-21T01:17:41.959Z,2.1
2018-12-21T01:18:41.847Z,2.1
2018-12-21T01:19:41.718Z,2.1
2018-12-21T01:20:41.620Z,2.1
2018-12-21T01:21:41.503Z,2.1
2018-12-21T01:22:41.405Z,2.1
2018-12-21T01:23:41.301Z,2.1
2018-12-21T01:24:41.182Z,2.1
2018-12-21T01:25:41.071Z,2.1
2018-12-21T01:26:41.755Z,2.1
2018-12-21T01:27:41.643Z,2.1
2018-12-21T01:28:41.538Z,2.1
2018-12-21T01:29:41.430Z,2.1
2018-12-21T01:30:41.297Z,2.1
2018-12-21T01:31:41.192Z,2.1
2018-12-21T01:32:41.075Z,2.1
2018-12-21T01:33:40.946Z,2.1
2018-12-21T01:34:40.857Z,2.1
2018-12-21T01:35:40.853Z,2.1
2018-12-21T01:36:41.181Z,2.1
2018-12-21T01:37:41.103Z,2.1
2018-12-21T01:38:41.001Z,2.1
2018-12-21T01:39:40.893Z,2.1
2018-12-21T01:40:40.781Z,2.1
2018-12-21T01:41:40.813Z,2.1
2018-12-21T01:42:40.697Z,2.2
2018-12-21T01:43:40.583Z,2.1
2018-12-21T01:44:40.458Z,2.1
2018-12-21T01:45:40.336Z,2.1
2018-12-21T01:46:41.706Z,2.1
2018-12-21T01:47:41.615Z,2.1
2018-12-21T01:48:41.488Z,2.1
2018-12-21T01:49:41.473Z,2.1
2018-12-21T01:50:41.365Z,2.1
2018-12-21T01:51:47.849Z,2.1
2018-12-21T01:52:47.741Z,2.1
2018-12-21T01:53:47.623Z,2.1
2018-12-21T01:54:47.508Z,2.1
2018-12-21T01:55:47.384Z,2.2
2018-12-21T01:56:47.728Z,2.1
2018-12-21T01:57:47.608Z,2.2
2018-12-21T01:58:47.492Z,2.2
2018-12-21T01:59:47.376Z,2.2
2018-12-21T02:00:47.284Z,2.2
2018-12-21T02:01:47.198Z,2.2
2018-12-21T02:02:47.076Z,2.2
2018-12-21T02:03:46.966Z,2.2
2018-12-21T02:04:46.846Z,2.2
2018-12-21T02:05:46.788Z,2.2
2018-12-21T02:06:47.358Z,2.2
2018-12-21T02:07:47.222Z,2.2
2018-12-21T02:08:47.104Z,2.2
2018-12-21T02:09:49.770Z,2.2
2018-12-21T02:10:51.658Z,2.2
2018-12-21T02:11:51.555Z,2.1
2018-12-21T02:12:51.426Z,2.1
2018-12-21T02:13:51.290Z,2.1
2018-12-21T02:14:51.162Z,2.2
2018-12-21T02:15:51.059Z,2.2
2018-12-21T02:16:51.378Z,2.2
2018-12-21T02:17:51.284Z,2.2
2018-12-21T02:18:51.166Z,2.2
2018-12-21T02:19:51.070Z,2.2
2018-12-21T02:20:51.080Z,2.3
2018-12-21T02:21:56.639Z,2.3
2018-12-21T02:23:56.249Z,2.5
2018-12-21T02:24:56.122Z,2.5
2018-12-21T02:26:56.151Z,2.6
2018-12-21T02:27:56.075Z,2.6
2018-12-21T02:28:55.967Z,2.7
2018-12-21T02:29:55.859Z,2.7
2018-12-21T02:30:55.869Z,2.6
2018-12-21T02:31:55.786Z,2.7
2018-12-21T02:32:55.703Z,2.6
2018-12-21T02:33:55.622Z,2.6
2018-12-21T02:34:55.515Z,2.5
2018-12-21T02:35:55.401Z,2.5
2018-12-21T02:36:55.698Z,2.5
2018-12-21T02:37:55.573Z,2.5
2018-12-21T02:38:55.564Z,2.4
2018-12-21T02:39:55.447Z,2.3
2018-12-21T02:40:55.346Z,2.3
2018-12-21T02:41:55.306Z,2.3
2018-12-21T02:42:55.221Z,2.3
2018-12-21T02:43:55.153Z,2.3
2018-12-21T02:44:55.062Z,2.3
2018-12-21T02:45:54.988Z,2.2
2018-12-21T02:46:55.301Z,2.2
2018-12-21T02:47:55.207Z,2.1
2018-12-21T02:48:55.108Z,2.1
2018-12-21T02:49:54.990Z,2.1
2018-12-21T02:50:54.877Z,2.1
2018-12-21T02:51:54.743Z,2.1
2018-12-21T02:52:54.633Z,2
2018-12-21T02:53:54.512Z,2.1
2018-12-21T02:54:54.623Z,2
2018-12-21T02:55:54.501Z,2
2018-12-21T02:56:54.853Z,2
2018-12-21T02:57:54.739Z,2
2018-12-21T02:58:54.605Z,2
2018-12-21T02:59:54.479Z,2
2018-12-21T03:00:54.381Z,2
2018-12-21T03:01:54.273Z,2
2018-12-21T03:02:54.202Z,2
2018-12-21T03:03:54.097Z,2
2018-12-21T03:04:53.968Z,1.9
2018-12-21T03:05:53.869Z,1.9
2018-12-21T03:06:54.157Z,1.9
2018-12-21T03:07:54.031Z,2
2018-12-21T03:08:53.919Z,2
2018-12-21T03:09:53.804Z,2
2018-12-21T03:10:53.692Z,2
2018-12-21T03:11:53.624Z,2
2018-12-21T03:12:53.518Z,2
2018-12-21T03:13:53.402Z,2
2018-12-21T03:14:53.275Z,2
2018-12-21T03:15:53.213Z,2
2018-12-21T03:16:53.560Z,2
2018-12-21T03:17:53.450Z,2
2018-12-21T03:18:53.366Z,2
2018-12-21T03:19:53.356Z,1.9
2018-12-21T03:20:53.247Z,1.9
2018-12-21T03:21:53.269Z,1.9
2018-12-21T03:22:53.163Z,1.9
2018-12-21T03:23:53.114Z,1.9
2018-12-21T03:24:53.003Z,1.9
2018-12-21T03:26:01.838Z,1.9
2018-12-21T03:27:02.184Z,1.9
2018-12-21T03:28:02.072Z,1.9
2018-12-21T03:29:01.988Z,1.9
2018-12-21T03:30:01.884Z,1.9
2018-12-21T03:31:01.855Z,1.9
2018-12-21T03:32:01.913Z,1.9
2018-12-21T03:33:01.884Z,1.9
2018-12-21T03:34:01.880Z,1.9
2018-12-21T03:35:01.894Z,1.9
2018-12-21T03:36:02.925Z,1.9
2018-12-21T03:37:03.353Z,1.9
2018-12-21T03:38:03.248Z,1.9
2018-12-21T03:39:03.162Z,1.9
2018-12-21T03:40:03.053Z,1.9
2018-12-21T03:41:02.975Z,1.8
2018-12-21T03:42:06.232Z,1.8
2018-12-21T03:43:06.114Z,1.8
2018-12-21T03:44:06.007Z,1.9
2018-12-21T03:45:06.122Z,1.9
2018-12-21T03:46:06.019Z,1.8
2018-12-21T03:47:06.542Z,1.9
2018-12-21T03:48:06.444Z,1.8
2018-12-21T03:49:06.442Z,1.9
2018-12-21T03:50:06.323Z,1.9
2018-12-21T03:51:06.198Z,2
2018-12-21T03:52:06.331Z,2.1
2018-12-21T03:53:06.281Z,2.2
2018-12-21T03:55:06.117Z,2.3
2018-12-21T03:56:06.711Z,2.4
2018-12-21T03:57:07.021Z,2.4
2018-12-21T03:58:06.912Z,2.4
2018-12-21T03:59:06.831Z,2.4
2018-12-21T04:00:06.710Z,2.4
2018-12-21T04:01:06.629Z,2.4
2018-12-21T04:02:06.523Z,2.4
2018-12-21T04:03:06.436Z,2.4
2018-12-21T04:04:06.342Z,2.4
2018-12-21T04:05:06.236Z,2.3
2018-12-21T04:06:08.922Z,2.3
2018-12-21T04:07:09.240Z,2.3
2018-12-21T04:08:09.245Z,2.2
2018-12-21T04:09:09.165Z,2.2
2018-12-21T04:10:09.108Z,2.2
2018-12-21T04:11:09.004Z,2.1
2018-12-21T04:12:08.890Z,2.1
2018-12-21T04:13:08.779Z,2.1
2018-12-21T04:14:08.706Z,2.1
2018-12-21T04:15:08.611Z,2
2018-12-21T04:16:08.509Z,2
2018-12-21T04:17:08.997Z,1.9
2018-12-21T04:18:08.873Z,1.9
2018-12-21T04:19:08.812Z,1.9
2018-12-21T04:20:08.726Z,1.9
2018-12-21T04:21:08.629Z,2
2018-12-21T04:22:08.525Z,2.1
2018-12-21T04:23:08.453Z,2.2
2018-12-21T04:27:08.150Z,2.3
2018-12-21T04:28:08.038Z,2.3
2018-12-21T04:29:08.376Z,2.3
2018-12-21T04:30:08.274Z,2.3
2018-12-21T04:31:08.352Z,2.2
2018-12-21T04:32:08.267Z,2.2
2018-12-21T04:33:08.168Z,2.2
2018-12-21T04:34:08.046Z,2.1
2018-12-21T04:35:08.036Z,2.1
2018-12-21T04:36:08.183Z,2.1
2018-12-21T04:37:08.508Z,2.1
2018-12-21T04:38:08.402Z,2
2018-12-21T04:39:08.318Z,1.9
2018-12-21T04:40:08.212Z,1.9
2018-12-21T04:41:08.156Z,1.8
2018-12-21T04:42:08.079Z,2
2018-12-21T04:43:08.000Z,2.1
2018-12-21T04:45:08.331Z,2.1
2018-12-21T04:47:08.526Z,2.2
2018-12-21T04:48:08.410Z,2.2
2018-12-21T04:49:08.333Z,2.2
2018-12-21T04:50:08.459Z,2.3
2018-12-21T04:51:08.358Z,2.2
2018-12-21T04:52:08.295Z,2.2
2018-12-21T04:53:08.199Z,2.2
2018-12-21T04:54:08.148Z,2.1
2018-12-21T04:55:08.050Z,2.1
2018-12-21T04:56:07.940Z,2
2018-12-21T04:57:08.297Z,2
2018-12-21T04:58:08.178Z,1.9
2018-12-21T04:59:10.367Z,1.9
2018-12-21T05:00:10.258Z,1.8
2018-12-21T05:01:10.152Z,1.7
2018-12-21T05:02:10.092Z,1.7
2018-12-21T05:03:10.010Z,1.7
2018-12-21T05:04:19.496Z,1.7
2018-12-21T05:05:20.343Z,1.8
2018-12-21T05:06:20.258Z,1.8
2018-12-21T05:07:20.600Z,1.8
2018-12-21T05:08:20.473Z,1.7
2018-12-21T05:09:20.364Z,1.7
2018-12-21T05:10:20.258Z,1.7
2018-12-21T05:11:20.185Z,1.8
2018-12-21T05:12:20.092Z,1.8
2018-12-21T05:13:20.021Z,1.8
2018-12-21T05:14:19.960Z,1.8
2018-12-21T05:15:20.080Z,1.8
2018-12-21T05:16:19.985Z,1.8
2018-12-21T05:17:20.303Z,1.7
2018-12-21T05:18:20.230Z,1.8
2018-12-21T05:19:20.112Z,1.8
2018-12-21T05:20:20.010Z,1.8
2018-12-21T05:21:22.719Z,1.8
2018-12-21T05:22:22.616Z,1.8
2018-12-21T05:23:22.536Z,1.8
2018-12-21T05:24:22.420Z,1.8
2018-12-21T05:25:22.312Z,1.8
2018-12-21T05:26:22.205Z,1.8
2018-12-21T05:27:22.530Z,1.8
2018-12-21T05:28:22.434Z,1.8
2018-12-21T05:29:22.540Z,1.8
2018-12-21T05:30:22.444Z,1.8
2018-12-21T05:31:29.167Z,1.8
2018-12-21T05:32:29.057Z,1.8
2018-12-21T05:33:29.005Z,1.9
2018-12-21T05:34:28.922Z,1.8
2018-12-21T05:35:28.829Z,1.9
2018-12-21T05:36:28.769Z,1.8
2018-12-21T05:37:29.409Z,1.9
2018-12-21T05:38:29.292Z,1.9
2018-12-21T05:39:29.189Z,1.9
2018-12-21T05:40:29.096Z,1.9
2018-12-21T05:41:28.978Z,2
2018-12-21T05:42:28.867Z,2
2018-12-21T05:43:28.764Z,1.9
2018-12-21T05:44:28.693Z,2
2018-12-21T05:45:28.587Z,1.9
2018-12-21T05:46:28.465Z,2
2018-12-21T05:47:28.832Z,2
2018-12-21T05:48:28.745Z,2
2018-12-21T05:49:28.672Z,1.9
2018-12-21T05:50:28.565Z,2
2018-12-21T05:53:27.946Z,2.2
2018-12-21T05:54:27.837Z,2.3
2018-12-21T05:57:27.640Z,2.5
2018-12-21T05:58:27.527Z,2.5
2018-12-21T05:59:27.424Z,2.5
2018-12-21T06:00:27.368Z,2.5
2018-12-21T06:01:27.274Z,2.5
2018-12-21T06:02:27.270Z,2.5
2018-12-21T06:03:27.145Z,2.4
2018-12-21T06:04:27.047Z,2.4
2018-12-21T06:05:26.955Z,2.3
2018-12-21T06:06:26.878Z,2.3
2018-12-21T06:07:27.193Z,2.2
2018-12-21T06:08:27.105Z,2.2
2018-12-21T06:09:26.986Z,2.1
2018-12-21T06:10:26.880Z,2.1
2018-12-21T06:11:26.780Z,2
2018-12-21T06:12:26.700Z,2
2018-12-21T06:13:26.698Z,1.9
2018-12-21T06:14:26.599Z,1.8
2018-12-21T06:15:26.506Z,1.8
2018-12-21T06:16:27.448Z,1.8
2018-12-21T06:17:27.772Z,1.8
2018-12-21T06:18:27.656Z,1.7
2018-12-21T06:19:27.546Z,1.7
2018-12-21T06:20:27.443Z,1.7
2018-12-21T06:21:27.571Z,1.7
2018-12-21T06:22:27.465Z,1.6
2018-12-21T06:23:27.368Z,1.6
2018-12-21T06:24:27.490Z,1.6
2018-12-21T06:25:27.412Z,1.6
2018-12-21T06:26:27.333Z,1.5
2018-12-21T06:27:27.665Z,1.5
2018-12-21T06:28:27.568Z,1.4
2018-12-21T06:29:27.488Z,1.4
2018-12-21T06:30:27.389Z,1.4
2018-12-21T06:31:27.292Z,1.5
2018-12-21T06:32:27.171Z,1.5
2018-12-21T06:33:27.074Z,1.5
2018-12-21T06:34:27.204Z,1.4
2018-12-21T06:35:27.087Z,1.4
2018-12-21T06:36:27.011Z,1.4
2018-12-21T06:37:27.347Z,1.4
2018-12-21T06:38:27.244Z,1.3
2018-12-21T06:39:27.125Z,1.4
2018-12-21T06:40:27.027Z,1.4
2018-12-21T06:41:26.916Z,1.4
2018-12-21T06:42:26.933Z,1.4
2018-12-21T06:43:26.830Z,1.4
2018-12-21T06:44:26.705Z,1.4
2018-12-21T06:45:26.596Z,1.3
2018-12-21T06:46:27.495Z,1.3
2018-12-21T06:47:27.835Z,1.3
2018-12-21T06:48:27.713Z,1.4
2018-12-21T06:49:27.620Z,1.4
2018-12-21T06:50:27.517Z,1.4
2018-12-21T06:51:27.423Z,1.4
2018-12-21T06:52:27.342Z,1.4
2018-12-21T06:53:27.241Z,1.4
2018-12-21T06:54:27.135Z,1.4
2018-12-21T06:55:27.031Z,1.4
2018-12-21T06:56:26.921Z,1.5
2018-12-21T06:57:27.460Z,1.5
2018-12-21T06:58:27.393Z,1.5
2018-12-21T06:59:29.850Z,1.4
2018-12-21T07:00:29.831Z,1.4
2018-12-21T07:01:29.735Z,1.5
2018-12-21T07:02:29.632Z,1.5
2018-12-21T07:03:29.553Z,1.4
2018-12-21T07:04:29.453Z,1.5
2018-12-21T07:05:29.366Z,1.5
2018-12-21T07:06:29.259Z,1.5
2018-12-21T07:07:29.810Z,1.4
2018-12-21T07:08:29.739Z,1.5
2018-12-21T07:09:29.641Z,1.5
2018-12-21T07:10:29.794Z,1.4
2018-12-21T07:11:29.688Z,1.5
2018-12-21T07:12:29.576Z,1.5
2018-12-21T07:13:29.484Z,1.4
2018-12-21T07:14:29.427Z,1.4
2018-12-21T07:15:29.316Z,1.4
2018-12-21T07:16:32.193Z,1.4
2018-12-21T07:17:32.509Z,1.4
2018-12-21T07:18:32.417Z,1.4
2018-12-21T07:19:32.317Z,1.4
2018-12-21T07:20:32.202Z,1.4
2018-12-21T07:21:32.103Z,1.4
2018-12-21T07:22:32.693Z,1.4
2018-12-21T07:23:32.581Z,1.4
2018-12-21T07:24:32.503Z,1.4
2018-12-21T07:25:32.404Z,1.5
2018-12-21T07:26:32.376Z,1.4
2018-12-21T07:27:32.721Z,1.4
2018-12-21T07:28:32.611Z,1.4
2018-12-21T07:29:32.524Z,1.4
2018-12-21T07:30:32.417Z,1.5
2018-12-21T07:31:32.313Z,1.4
2018-12-21T07:32:32.201Z,1.5
2018-12-21T07:33:32.218Z,1.4
2018-12-21T07:34:32.143Z,1.4
2018-12-21T07:35:32.029Z,1.5
2018-12-21T07:36:31.921Z,1.4
2018-12-21T07:37:32.260Z,1.4
2018-12-21T07:38:32.141Z,1.5
2018-12-21T07:39:32.948Z,1.5
2018-12-21T07:40:32.856Z,1.5
2018-12-21T07:41:32.850Z,1.6
2018-12-21T07:42:32.743Z,1.6
2018-12-21T07:43:32.631Z,1.6
2018-12-21T07:44:32.553Z,1.6
2018-12-21T07:45:32.441Z,1.6
2018-12-21T07:46:32.331Z,1.6
2018-12-21T07:47:32.879Z,1.6
2018-12-21T07:48:32.786Z,1.6
2018-12-21T07:49:32.695Z,1.6
2018-12-21T07:50:32.609Z,1.6
2018-12-21T07:51:32.715Z,1.7
2018-12-21T07:52:32.612Z,1.7
2018-12-21T07:53:36.773Z,1.7
2018-12-21T07:54:36.668Z,1.7
2018-12-21T07:55:36.600Z,1.7
2018-12-21T07:56:36.492Z,1.7
2018-12-21T07:57:36.881Z,1.7
2018-12-21T07:58:36.787Z,1.7
2018-12-21T07:59:36.685Z,1.7
2018-12-21T08:00:36.585Z,1.8
2018-12-21T08:01:36.492Z,1.8
2018-12-21T08:02:36.417Z,1.8
2018-12-21T08:03:36.310Z,1.8
2018-12-21T08:04:36.209Z,1.8
2018-12-21T08:05:36.458Z,1.8
2018-12-21T08:06:36.352Z,1.9
2018-12-21T08:07:36.778Z,1.9
2018-12-21T08:08:36.823Z,1.9
2018-12-21T08:09:36.718Z,2
2018-12-21T08:10:36.636Z,2
2018-12-21T08:11:36.531Z,2.1
2018-12-21T08:12:36.540Z,2.2
2018-12-21T08:14:36.156Z,2.4
2018-12-21T08:15:36.056Z,2.5
2018-12-21T08:16:36.002Z,2.5
2018-12-21T08:17:36.309Z,2.6
2018-12-21T08:18:36.250Z,2.7
2018-12-21T08:19:36.148Z,2.7
2018-12-21T08:20:36.048Z,2.7
2018-12-21T08:21:35.927Z,2.8
2018-12-21T08:22:35.821Z,2.8
2018-12-21T08:23:44.612Z,2.8
2018-12-21T08:24:44.516Z,2.8
2018-12-21T08:25:44.406Z,2.8
2018-12-21T08:26:44.422Z,2.8
2018-12-21T08:27:44.739Z,2.7
2018-12-21T08:28:44.629Z,2.8
2018-12-21T08:29:44.514Z,2.8
2018-12-21T08:30:44.407Z,2.8
2018-12-21T08:31:44.300Z,2.8
2018-12-21T08:32:44.340Z,2.8
2018-12-21T08:33:44.254Z,2.8
2018-12-21T08:34:44.212Z,2.8
2018-12-21T08:35:44.242Z,2.8
2018-12-21T08:36:44.389Z,2.8
2018-12-21T08:37:44.748Z,2.8
2018-12-21T08:38:44.653Z,2.8
2018-12-21T08:39:44.611Z,2.8
2018-12-21T08:40:44.496Z,2.8
2018-12-21T08:41:45.609Z,2.8
2018-12-21T08:42:45.549Z,2.8
2018-12-21T08:43:45.537Z,2.8
2018-12-21T08:44:45.410Z,2.8
2018-12-21T08:45:45.303Z,2.8
2018-12-21T08:46:45.184Z,2.8
2018-12-21T08:47:45.495Z,2.8
2018-12-21T08:48:45.421Z,2.8
2018-12-21T08:49:45.324Z,2.8
2018-12-21T08:50:45.200Z,2.8
2018-12-21T08:51:45.093Z,2.8
2018-12-21T08:52:44.994Z,2.8
2018-12-21T08:53:53.111Z,2.8
2018-12-21T08:54:52.995Z,2.8
2018-12-21T08:55:52.879Z,2.8
2018-12-21T08:56:52.767Z,2.8
2018-12-21T08:57:53.090Z,2.8
2018-12-21T08:58:52.995Z,2.8
2018-12-21T08:59:52.896Z,2.8
2018-12-21T09:00:52.799Z,2.9
2018-12-21T09:01:52.698Z,2.9
2018-12-21T09:02:52.634Z,2.9
2018-12-21T09:03:52.535Z,3
2018-12-21T09:04:52.423Z,3.1
2018-12-21T09:05:52.301Z,3.2
2018-12-21T09:06:52.211Z,3.2
2018-12-21T09:07:52.515Z,3.2
2018-12-21T09:08:52.447Z,3.3
2018-12-21T09:09:52.353Z,3.3
2018-12-21T09:10:52.253Z,3.4
2018-12-21T09:11:52.145Z,3.5
2018-12-21T09:12:52.047Z,3.5
2018-12-21T09:13:51.963Z,3.5
2018-12-21T09:14:51.873Z,3.5
2018-12-21T09:15:52.243Z,3.5
2018-12-21T09:16:52.128Z,3.5
2018-12-21T09:17:52.436Z,3.5
2018-12-21T09:18:53.022Z,3.5
2018-12-21T09:19:52.937Z,3.5
2018-12-21T09:20:52.965Z,3.5
2018-12-21T09:21:52.872Z,3.6
2018-12-21T09:22:52.769Z,3.6
2018-12-21T09:24:00.739Z,3.6
2018-12-21T09:25:01.332Z,3.6
2018-12-21T09:26:01.207Z,3.5
2018-12-21T09:27:01.098Z,3.6
2018-12-21T09:28:01.672Z,3.6
2018-12-21T09:29:01.621Z,3.6
2018-12-21T09:30:01.676Z,3.7
2018-12-21T09:31:01.618Z,3.7
2018-12-21T09:32:05.952Z,3.8
2018-12-21T09:33:05.848Z,3.8
2018-12-21T09:34:05.746Z,3.8
2018-12-21T09:35:05.666Z,3.9
2018-12-21T09:36:05.562Z,3.9
2018-12-21T09:37:05.453Z,4
2018-12-21T09:38:05.774Z,4.1
2018-12-21T09:39:05.687Z,4.1
2018-12-21T09:40:05.563Z,4.2
2018-12-21T09:41:05.472Z,4.3
2018-12-21T09:42:05.365Z,4.3
2018-12-21T09:43:05.257Z,4.3
2018-12-21T09:44:05.169Z,4.3
2018-12-21T09:45:06.120Z,4.3
2018-12-21T09:46:06.055Z,4.3
2018-12-21T09:47:05.969Z,4.3
2018-12-21T09:48:06.305Z,4.3
2018-12-21T09:49:06.196Z,4.3
2018-12-21T09:50:06.078Z,4.3
2018-12-21T09:51:05.985Z,4.3
2018-12-21T09:52:06.392Z,4.3
2018-12-21T09:53:06.303Z,4.3
2018-12-21T09:54:10.774Z,4.3
2018-12-21T09:55:10.668Z,4.3
2018-12-21T09:56:10.668Z,4.3
2018-12-21T09:57:10.572Z,4.3
2018-12-21T09:58:10.910Z,4.3
2018-12-21T09:59:10.800Z,4.3
2018-12-21T10:00:10.706Z,4.3
2018-12-21T10:01:11.651Z,4.3
2018-12-21T10:02:11.538Z,4.3
2018-12-21T10:03:11.590Z,4.3
2018-12-21T10:04:11.484Z,4.5
2018-12-21T10:05:11.593Z,4.4
2018-12-21T10:06:14.330Z,4.6
2018-12-21T10:07:14.224Z,4.6
2018-12-21T10:08:14.570Z,4.7
2018-12-21T10:09:14.465Z,4.7
2018-12-21T10:10:14.360Z,4.7
2018-12-21T10:11:14.356Z,4.7
2018-12-21T10:12:15.692Z,4.8
2018-12-21T10:13:15.591Z,4.8
2018-12-21T10:14:15.495Z,4.8
2018-12-21T10:15:15.879Z,4.8
2018-12-21T10:16:15.774Z,4.8
2018-12-21T10:17:15.693Z,4.8
2018-12-21T10:18:16.174Z,4.8
2018-12-21T10:19:16.073Z,4.7
2018-12-21T10:20:20.393Z,4.8
2018-12-21T10:21:20.508Z,4.7
2018-12-21T10:22:20.418Z,4.8
2018-12-21T10:23:20.304Z,4.8
2018-12-21T10:24:29.349Z,4.7
2018-12-21T10:25:29.330Z,4.7
2018-12-21T10:26:29.242Z,4.6
2018-12-21T10:27:29.162Z,4.6
2018-12-21T10:28:29.506Z,4.6
2018-12-21T10:29:29.466Z,4.6
2018-12-21T10:30:29.437Z,4.7
2018-12-21T10:31:29.816Z,4.7
2018-12-21T10:32:32.572Z,4.7
2018-12-21T10:33:32.700Z,4.7
2018-12-21T10:34:32.773Z,4.7
2018-12-21T10:35:32.698Z,4.6
2018-12-21T10:36:32.582Z,4.7
2018-12-21T10:37:32.519Z,4.7
2018-12-21T10:38:33.112Z,4.7
2018-12-21T10:39:33.006Z,4.7
2018-12-21T10:40:33.586Z,4.7
2018-12-21T10:41:33.478Z,4.7
2018-12-21T10:42:33.381Z,4.7
2018-12-21T10:43:33.304Z,4.7
2018-12-21T10:44:33.410Z,4.7
2018-12-21T10:45:42.371Z,4.6
2018-12-21T10:46:42.262Z,4.6
2018-12-21T10:47:42.404Z,4.6
2018-12-21T10:48:42.846Z,4.6
2018-12-21T10:49:42.748Z,4.6
2018-12-21T10:50:42.630Z,4.7
2018-12-21T10:51:42.526Z,4.7
2018-12-21T10:52:42.416Z,4.7
2018-12-21T10:53:46.491Z,4.8
2018-12-21T10:54:46.780Z,4.8
2018-12-21T10:55:46.738Z,4.8
2018-12-21T10:56:47.156Z,4.8
2018-12-21T10:57:47.054Z,4.8
2018-12-21T10:58:47.414Z,4.8
2018-12-21T10:59:49.673Z,4.8
2018-12-21T11:00:49.578Z,4.9
2018-12-21T11:01:49.464Z,4.9
2018-12-21T11:02:49.368Z,4.9
2018-12-21T11:03:49.282Z,4.9
2018-12-21T11:04:49.168Z,4.9
2018-12-21T11:05:49.064Z,4.9
2018-12-21T11:06:49.076Z,4.9
2018-12-21T11:07:48.962Z,4.9
2018-12-21T11:08:49.298Z,4.9
2018-12-21T11:09:49.437Z,4.9
2018-12-21T11:10:49.344Z,4.9
2018-12-21T11:11:49.246Z,5
2018-12-21T11:12:49.140Z,5
2018-12-21T11:13:49.050Z,5.1
2018-12-21T11:14:48.998Z,5.1
2018-12-21T11:15:48.902Z,5.3
2018-12-21T11:16:49.058Z,5.3
2018-12-21T11:17:48.970Z,5.3
2018-12-21T11:18:49.414Z,5.4
2018-12-21T11:19:49.421Z,5.4
2018-12-21T11:20:50.378Z,5.4
2018-12-21T11:21:50.507Z,5.4
2018-12-21T11:22:50.434Z,5.5
2018-12-21T11:23:50.375Z,5.6
2018-12-21T11:24:53.034Z,5.6
2018-12-21T11:25:52.936Z,5.6
2018-12-21T11:26:52.932Z,5.5
2018-12-21T11:27:52.815Z,5.5
2018-12-21T11:28:55.604Z,5.4
2018-12-21T11:29:55.540Z,5.4
2018-12-21T11:30:56.474Z,5.4
2018-12-21T11:31:56.368Z,5.4
2018-12-21T11:32:56.355Z,5.4
2018-12-21T11:33:56.236Z,5.4
2018-12-21T11:34:56.158Z,5.5
2018-12-21T11:35:56.050Z,5.4
2018-12-21T11:36:56.170Z,5.3
2018-12-21T11:37:56.050Z,5.3
2018-12-21T11:38:56.478Z,5.3
2018-12-21T11:39:56.388Z,5.4
2018-12-21T11:40:56.270Z,5.4
2018-12-21T11:41:56.153Z,5.4
2018-12-21T11:42:56.281Z,5.4
2018-12-21T11:43:56.170Z,5.4
2018-12-21T11:44:56.118Z,5.4
2018-12-21T11:46:03.407Z,5.4
2018-12-21T11:47:03.307Z,5.4
2018-12-21T11:48:03.193Z,5.4
2018-12-21T11:49:03.523Z,5.4
2018-12-21T11:50:03.428Z,5.4
2018-12-21T11:51:03.462Z,5.4
2018-12-21T11:52:03.600Z,5.3
2018-12-21T11:53:03.481Z,5.4
2018-12-21T11:54:03.387Z,5.4
2018-12-21T11:55:03.300Z,5.4
2018-12-21T11:56:03.215Z,5.4
2018-12-21T11:57:03.149Z,5.4
2018-12-21T11:58:03.067Z,5.4
2018-12-21T11:59:03.389Z,5.4
2018-12-21T12:00:03.499Z,5.5
2018-12-21T12:01:03.416Z,5.5
2018-12-21T12:02:03.320Z,5.5
2018-12-21T12:03:03.455Z,5.5
2018-12-21T12:04:03.346Z,5.5
2018-12-21T12:05:03.769Z,5.5
2018-12-21T12:06:03.892Z,5.6
2018-12-21T12:07:03.833Z,5.6
2018-12-21T12:08:03.737Z,5.5
2018-12-21T12:09:07.085Z,5.6
2018-12-21T12:10:06.990Z,5.6
2018-12-21T12:11:06.891Z,5.6
2018-12-21T12:12:06.813Z,5.6
2018-12-21T12:13:06.718Z,5.6
2018-12-21T12:14:06.665Z,5.6
2018-12-21T12:15:07.612Z,5.6
2018-12-21T12:16:07.523Z,5.7
2018-12-21T12:17:07.436Z,5.8
2018-12-21T12:18:07.583Z,5.8
2018-12-21T12:19:07.923Z,5.8
2018-12-21T12:20:07.825Z,5.7
2018-12-21T12:21:08.418Z,5.8
2018-12-21T12:22:08.371Z,5.8
2018-12-21T12:23:08.268Z,5.8
2018-12-21T12:24:08.386Z,5.8
2018-12-21T12:25:08.328Z,5.7
2018-12-21T12:26:08.222Z,5.7
2018-12-21T12:27:08.222Z,5.7
2018-12-21T12:28:08.481Z,5.7
2018-12-21T12:29:08.854Z,5.7
2018-12-21T12:30:08.738Z,5.6
2018-12-21T12:31:08.657Z,5.6
2018-12-21T12:32:08.552Z,5.5
2018-12-21T12:33:08.458Z,5.6
2018-12-21T12:34:08.368Z,5.7
2018-12-21T12:35:08.260Z,5.7
2018-12-21T12:36:08.156Z,5.7
2018-12-21T12:37:08.036Z,5.8
2018-12-21T12:38:07.924Z,5.8
2018-12-21T12:39:08.244Z,5.8
2018-12-21T12:40:08.143Z,5.8
2018-12-21T12:41:08.055Z,5.9
2018-12-21T12:42:07.965Z,5.9
2018-12-21T12:43:08.057Z,6
2018-12-21T12:44:08.899Z,6
2018-12-21T12:45:09.879Z,5.9
2018-12-21T12:46:10.589Z,5.9
2018-12-21T12:47:11.227Z,5.8
2018-12-21T12:48:12.203Z,5.8
2018-12-21T12:49:13.599Z,5.9
2018-12-21T12:50:14.073Z,5.8
2018-12-21T12:51:14.654Z,5.9
2018-12-21T12:52:15.391Z,6
2018-12-21T12:53:16.198Z,6.1
2018-12-21T12:54:17.006Z,6.1
2018-12-21T12:55:17.803Z,6.2
2018-12-21T12:56:18.605Z,6.3
2018-12-21T12:57:19.097Z,6.4
2018-12-21T12:58:19.463Z,6.4
2018-12-21T12:59:21.655Z,6.5
2018-12-21T13:00:22.119Z,6.5
2018-12-21T13:01:22.024Z,6.6
2018-12-21T13:02:21.919Z,6.6
2018-12-21T13:03:21.815Z,6.7
2018-12-21T13:04:21.755Z,6.7
2018-12-21T13:05:21.659Z,6.8
2018-12-21T13:06:21.553Z,6.9
2018-12-21T13:07:24.953Z,7
2018-12-21T13:08:24.868Z,7
2018-12-21T13:09:25.352Z,7
2018-12-21T13:10:25.277Z,7
2018-12-21T13:11:25.169Z,7.1
2018-12-21T13:12:25.079Z,7.1
2018-12-21T13:13:25.011Z,7.1
2018-12-21T13:14:24.933Z,7.1
2018-12-21T13:15:24.832Z,7.2
2018-12-21T13:16:24.737Z,7.3
2018-12-21T13:17:24.645Z,7.3
2018-12-21T13:18:24.549Z,7.3
2018-12-21T13:23:21.537Z,7.5
2018-12-21T13:24:21.426Z,7.6
2018-12-21T13:25:21.359Z,7.6
2018-12-21T13:26:21.326Z,7.6
2018-12-21T13:27:21.225Z,7.6
2018-12-21T13:28:21.175Z,7.6
2018-12-21T13:29:21.069Z,7.6
2018-12-21T13:30:20.974Z,7.5
2018-12-21T13:31:20.881Z,7.4
2018-12-21T13:32:20.773Z,7.6
2018-12-21T13:33:21.239Z,7.5
2018-12-21T13:34:21.157Z,7.4
2018-12-21T13:35:21.041Z,7.4
2018-12-21T13:36:20.952Z,7.3
2018-12-21T13:37:20.848Z,7.3
2018-12-21T13:38:20.759Z,7.2
2018-12-21T13:39:20.646Z,7.2
2018-12-21T13:40:20.542Z,7.2
2018-12-21T13:41:20.445Z,7.2
2018-12-21T13:42:20.367Z,7.1
2018-12-21T13:43:20.727Z,7.1
2018-12-21T13:44:20.618Z,7.1
2018-12-21T13:45:20.530Z,7.1
2018-12-21T13:46:20.454Z,7.1
2018-12-21T13:47:20.365Z,7.2
2018-12-21T13:48:20.255Z,7.2
2018-12-21T13:49:20.128Z,7.2
2018-12-21T13:50:20.023Z,7.2
2018-12-21T13:51:19.902Z,7.1
2018-12-21T13:52:19.809Z,7
2018-12-21T13:53:20.106Z,7
2018-12-21T13:54:20.004Z,6.9
2018-12-21T13:55:21.146Z,6.9
2018-12-21T13:56:21.043Z,6.8
2018-12-21T13:57:20.968Z,6.7
2018-12-21T13:58:20.871Z,6.7
2018-12-21T13:59:20.880Z,6.7
2018-12-21T14:00:20.778Z,6.7
2018-12-21T14:01:20.652Z,6.6
2018-12-21T14:02:20.522Z,6.6
2018-12-21T14:03:20.880Z,6.6
2018-12-21T14:04:20.755Z,6.6
2018-12-21T14:05:20.646Z,6.7
2018-12-21T14:06:20.560Z,6.7
2018-12-21T14:07:20.594Z,6.8
2018-12-21T14:08:20.516Z,6.9
2018-12-21T14:09:20.396Z,6.9
2018-12-21T14:10:20.281Z,7
2018-12-21T14:11:20.182Z,7.1
2018-12-21T14:12:20.082Z,7.1
2018-12-21T14:13:20.445Z,7.2
2018-12-21T14:14:20.336Z,7.3
2018-12-21T14:15:20.223Z,7.4